sensor_id;sensor_type;location;lat;lon;timestamp;P1;durP1;ratioP1;P2;durP2;ratioP2
9007;SDS011;62813;51.424;6.762;2023-12-07T00:02:03;15.43;;;12.23;;
9007;SDS011;62813;51.424;6.762;2023-12-07T00:04:31;15.70;;;12.13;;
9007;SDS011;62813;51.424;6.762;2023-12-07T00:06:58;18.00;;;12.33;;
9007;SDS011;62813;51.424;6.762;2023-12-07T00:09:25;18.10;;;13.13;;
9007;SDS011;62813;51.424;6.762;2023-12-07T00:11:53;17.40;;;13.03;;
9007;SDS011;62813;51.424;6.762;2023-12-07T00:14:20;18.63;;;12.97;;
9007;SDS011;62813;51.424;6.762;2023-12-07T00:16:46;17.47;;;13.37;;
9007;SDS011;62813;51.424;6.762;2023-12-07T00:19:16;15.70;;;12.50;;
9007;SDS011;62813;51.424;6.762;2023-12-07T00:21:43;15.27;;;11.87;;
9007;SDS011;62813;51.424;6.762;2023-12-07T00:24:10;13.90;;;11.50;;
9007;SDS011;62813;51.424;6.762;2023-12-07T00:26:36;14.90;;;10.77;;
9007;SDS011;62813;51.424;6.762;2023-12-07T00:29:04;14.03;;;11.00;;
9007;SDS011;62813;51.424;6.762;2023-12-07T00:31:31;16.13;;;11.43;;
9007;SDS011;62813;51.424;6.762;2023-12-07T00:33:59;12.77;;;11.23;;
9007;SDS011;62813;51.424;6.762;2023-12-07T00:36:25;15.10;;;11.20;;
9007;SDS011;62813;51.424;6.762;2023-12-07T00:38:53;13.50;;;11.53;;
9007;SDS011;62813;51.424;6.762;2023-12-07T00:41:19;15.07;;;11.43;;
9007;SDS011;62813;51.424;6.762;2023-12-07T00:43:46;15.13;;;11.40;;
9007;SDS011;62813;51.424;6.762;2023-12-07T00:46:14;15.80;;;11.93;;
9007;SDS011;62813;51.424;6.762;2023-12-07T00:48:41;15.00;;;13.07;;
9007;SDS011;62813;51.424;6.762;2023-12-07T00:51:08;15.10;;;12.00;;
9007;SDS011;62813;51.424;6.762;2023-12-07T00:53:35;14.97;;;11.97;;
9007;SDS011;62813;51.424;6.762;2023-12-07T00:56:02;16.43;;;12.80;;
9007;SDS011;62813;51.424;6.762;2023-12-07T00:58:30;14.77;;;11.60;;
9007;SDS011;62813;51.424;6.762;2023-12-07T01:00:57;16.40;;;12.67;;
9007;SDS011;62813;51.424;6.762;2023-12-07T01:03:24;14.90;;;12.23;;
9007;SDS011;62813;51.424;6.762;2023-12-07T01:05:51;19.57;;;13.33;;
9007;SDS011;62813;51.424;6.762;2023-12-07T01:10:46;18.17;;;13.97;;
9007;SDS011;62813;51.424;6.762;2023-12-07T01:13:13;14.50;;;12.97;;
9007;SDS011;62813;51.424;6.762;2023-12-07T01:15:40;17.77;;;14.40;;
9007;SDS011;62813;51.424;6.762;2023-12-07T01:18:07;20.30;;;14.17;;
9007;SDS011;62813;51.424;6.762;2023-12-07T01:20:34;18.20;;;14.30;;
9007;SDS011;62813;51.424;6.762;2023-12-07T01:23:01;20.80;;;15.40;;
9007;SDS011;62813;51.424;6.762;2023-12-07T01:25:28;58.63;;;15.63;;
9007;SDS011;62813;51.424;6.762;2023-12-07T01:27:55;21.30;;;15.80;;
9007;SDS011;62813;51.424;6.762;2023-12-07T01:30:22;21.43;;;15.73;;
9007;SDS011;62813;51.424;6.762;2023-12-07T01:32:49;20.63;;;15.63;;
9007;SDS011;62813;51.424;6.762;2023-12-07T01:35:16;40.53;;;16.70;;
9007;SDS011;62813;51.424;6.762;2023-12-07T01:37:43;22.97;;;17.07;;
9007;SDS011;62813;51.424;6.762;2023-12-07T01:40:10;21.83;;;16.57;;
9007;SDS011;62813;51.424;6.762;2023-12-07T01:42:37;22.17;;;16.60;;
9007;SDS011;62813;51.424;6.762;2023-12-07T01:45:05;21.53;;;17.10;;
9007;SDS011;62813;51.424;6.762;2023-12-07T01:47:33;21.23;;;16.20;;
9007;SDS011;62813;51.424;6.762;2023-12-07T01:50:02;21.63;;;17.87;;
9007;SDS011;62813;51.424;6.762;2023-12-07T01:52:35;21.40;;;16.77;;
9007;SDS011;62813;51.424;6.762;2023-12-07T01:55:05;33.93;;;19.20;;
9007;SDS011;62813;51.424;6.762;2023-12-07T01:57:36;22.10;;;16.13;;
9007;SDS011;62813;51.424;6.762;2023-12-07T02:00:04;20.50;;;16.80;;
9007;SDS011;62813;51.424;6.762;2023-12-07T02:02:31;20.37;;;16.17;;
9007;SDS011;62813;51.424;6.762;2023-12-07T02:04:58;22.90;;;17.23;;
9007;SDS011;62813;51.424;6.762;2023-12-07T02:07:26;20.33;;;16.33;;
9007;SDS011;62813;51.424;6.762;2023-12-07T02:09:54;19.53;;;15.40;;
9007;SDS011;62813;51.424;6.762;2023-12-07T02:12:21;19.20;;;16.00;;
9007;SDS011;62813;51.424;6.762;2023-12-07T02:14:49;20.23;;;15.83;;
9007;SDS011;62813;51.424;6.762;2023-12-07T02:22:37;20.00;;;15.93;;
9007;SDS011;62813;51.424;6.762;2023-12-07T02:25:09;19.80;;;16.23;;
9007;SDS011;62813;51.424;6.762;2023-12-07T02:27:38;20.43;;;16.17;;
9007;SDS011;62813;51.424;6.762;2023-12-07T02:30:10;17.67;;;14.97;;
9007;SDS011;62813;51.424;6.762;2023-12-07T02:32:38;18.23;;;15.57;;
9007;SDS011;62813;51.424;6.762;2023-12-07T02:35:07;19.03;;;15.40;;
9007;SDS011;62813;51.424;6.762;2023-12-07T02:37:37;18.67;;;14.40;;
9007;SDS011;62813;51.424;6.762;2023-12-07T02:40:08;22.53;;;15.70;;
9007;SDS011;62813;51.424;6.762;2023-12-07T02:42:38;19.80;;;15.30;;
9007;SDS011;62813;51.424;6.762;2023-12-07T02:45:07;16.57;;;14.13;;
9007;SDS011;62813;51.424;6.762;2023-12-07T02:47:35;16.73;;;14.40;;
9007;SDS011;62813;51.424;6.762;2023-12-07T02:50:03;18.37;;;14.80;;
9007;SDS011;62813;51.424;6.762;2023-12-07T02:52:32;18.43;;;15.27;;
9007;SDS011;62813;51.424;6.762;2023-12-07T02:55:00;19.90;;;15.47;;
9007;SDS011;62813;51.424;6.762;2023-12-07T02:57:27;19.90;;;14.50;;
9007;SDS011;62813;51.424;6.762;2023-12-07T02:59:53;19.97;;;15.50;;
9007;SDS011;62813;51.424;6.762;2023-12-07T03:02:20;18.33;;;15.23;;
9007;SDS011;62813;51.424;6.762;2023-12-07T03:04:48;20.10;;;15.63;;
9007;SDS011;62813;51.424;6.762;2023-12-07T03:07:14;20.40;;;16.67;;
9007;SDS011;62813;51.424;6.762;2023-12-07T03:09:41;21.90;;;17.03;;
9007;SDS011;62813;51.424;6.762;2023-12-07T03:12:08;19.53;;;16.33;;
9007;SDS011;62813;51.424;6.762;2023-12-07T03:14:35;20.00;;;15.87;;
9007;SDS011;62813;51.424;6.762;2023-12-07T03:17:02;21.53;;;16.10;;
9007;SDS011;62813;51.424;6.762;2023-12-07T03:19:29;20.77;;;15.67;;
9007;SDS011;62813;51.424;6.762;2023-12-07T03:21:56;23.13;;;17.10;;
9007;SDS011;62813;51.424;6.762;2023-12-07T03:24:24;22.90;;;16.97;;
9007;SDS011;62813;51.424;6.762;2023-12-07T03:26:51;26.00;;;18.37;;
9007;SDS011;62813;51.424;6.762;2023-12-07T03:29:17;23.20;;;17.07;;
9007;SDS011;62813;51.424;6.762;2023-12-07T03:31:47;23.47;;;17.23;;
9007;SDS011;62813;51.424;6.762;2023-12-07T03:34:14;24.60;;;17.27;;
9007;SDS011;62813;51.424;6.762;2023-12-07T03:36:45;27.23;;;18.40;;
9007;SDS011;62813;51.424;6.762;2023-12-07T03:39:13;21.67;;;16.20;;
9007;SDS011;62813;51.424;6.762;2023-12-07T03:41:41;22.20;;;17.40;;
9007;SDS011;62813;51.424;6.762;2023-12-07T03:44:08;23.87;;;18.10;;
9007;SDS011;62813;51.424;6.762;2023-12-07T03:46:34;24.93;;;18.83;;
9007;SDS011;62813;51.424;6.762;2023-12-07T03:49:02;23.63;;;18.77;;
9007;SDS011;62813;51.424;6.762;2023-12-07T03:51:30;25.73;;;18.83;;
9007;SDS011;62813;51.424;6.762;2023-12-07T03:53:56;26.07;;;19.77;;
9007;SDS011;62813;51.424;6.762;2023-12-07T03:56:24;26.03;;;19.47;;
9007;SDS011;62813;51.424;6.762;2023-12-07T03:58:52;23.03;;;17.83;;
9007;SDS011;62813;51.424;6.762;2023-12-07T04:01:22;22.33;;;19.20;;
9007;SDS011;62813;51.424;6.762;2023-12-07T04:03:50;26.47;;;18.03;;
9007;SDS011;62813;51.424;6.762;2023-12-07T04:06:18;27.10;;;20.73;;
9007;SDS011;62813;51.424;6.762;2023-12-07T04:08:45;23.20;;;18.57;;
9007;SDS011;62813;51.424;6.762;2023-12-07T04:11:13;31.33;;;19.53;;
9007;SDS011;62813;51.424;6.762;2023-12-07T04:13:40;25.60;;;19.63;;
9007;SDS011;62813;51.424;6.762;2023-12-07T04:16:08;23.83;;;18.80;;
9007;SDS011;62813;51.424;6.762;2023-12-07T04:18:36;25.53;;;19.17;;
9007;SDS011;62813;51.424;6.762;2023-12-07T04:21:03;23.40;;;17.97;;
9007;SDS011;62813;51.424;6.762;2023-12-07T04:23:32;22.67;;;18.23;;
9007;SDS011;62813;51.424;6.762;2023-12-07T04:26:00;25.40;;;19.07;;
9007;SDS011;62813;51.424;6.762;2023-12-07T04:28:27;27.07;;;19.27;;
9007;SDS011;62813;51.424;6.762;2023-12-07T04:30:53;26.30;;;19.17;;
9007;SDS011;62813;51.424;6.762;2023-12-07T04:33:21;24.20;;;19.17;;
9007;SDS011;62813;51.424;6.762;2023-12-07T04:35:48;25.50;;;18.37;;
9007;SDS011;62813;51.424;6.762;2023-12-07T04:38:15;28.23;;;20.23;;
9007;SDS011;62813;51.424;6.762;2023-12-07T04:40:42;27.83;;;20.40;;
9007;SDS011;62813;51.424;6.762;2023-12-07T04:43:09;28.47;;;20.07;;
9007;SDS011;62813;51.424;6.762;2023-12-07T04:45:36;25.83;;;19.27;;
9007;SDS011;62813;51.424;6.762;2023-12-07T04:48:03;27.37;;;20.67;;
9007;SDS011;62813;51.424;6.762;2023-12-07T04:50:33;27.10;;;20.17;;
9007;SDS011;62813;51.424;6.762;2023-12-07T04:53:00;27.57;;;21.00;;
9007;SDS011;62813;51.424;6.762;2023-12-07T04:55:27;29.27;;;20.67;;
9007;SDS011;62813;51.424;6.762;2023-12-07T04:57:54;26.27;;;20.23;;
9007;SDS011;62813;51.424;6.762;2023-12-07T05:00:21;26.10;;;20.10;;
9007;SDS011;62813;51.424;6.762;2023-12-07T05:02:48;26.63;;;20.20;;
9007;SDS011;62813;51.424;6.762;2023-12-07T05:05:16;27.10;;;20.40;;
9007;SDS011;62813;51.424;6.762;2023-12-07T05:07:43;25.07;;;20.33;;
9007;SDS011;62813;51.424;6.762;2023-12-07T05:10:10;29.83;;;22.07;;
9007;SDS011;62813;51.424;6.762;2023-12-07T05:12:37;28.00;;;19.73;;
9007;SDS011;62813;51.424;6.762;2023-12-07T05:15:04;27.50;;;20.40;;
9007;SDS011;62813;51.424;6.762;2023-12-07T05:17:33;28.53;;;18.87;;
9007;SDS011;62813;51.424;6.762;2023-12-07T05:20:00;25.47;;;20.47;;
9007;SDS011;62813;51.424;6.762;2023-12-07T05:22:26;28.77;;;21.33;;
9007;SDS011;62813;51.424;6.762;2023-12-07T05:24:54;27.60;;;20.53;;
9007;SDS011;62813;51.424;6.762;2023-12-07T05:27:21;25.03;;;19.97;;
9007;SDS011;62813;51.424;6.762;2023-12-07T05:29:48;26.07;;;20.97;;
9007;SDS011;62813;51.424;6.762;2023-12-07T05:32:15;26.83;;;20.57;;
9007;SDS011;62813;51.424;6.762;2023-12-07T05:34:42;28.43;;;19.80;;
9007;SDS011;62813;51.424;6.762;2023-12-07T05:37:11;25.73;;;20.07;;
9007;SDS011;62813;51.424;6.762;2023-12-07T05:39:38;27.87;;;19.30;;
9007;SDS011;62813;51.424;6.762;2023-12-07T05:42:05;26.57;;;20.63;;
9007;SDS011;62813;51.424;6.762;2023-12-07T05:44:32;26.03;;;19.27;;
9007;SDS011;62813;51.424;6.762;2023-12-07T05:47:00;27.00;;;19.90;;
9007;SDS011;62813;51.424;6.762;2023-12-07T05:49:27;27.30;;;19.00;;
9007;SDS011;62813;51.424;6.762;2023-12-07T05:51:54;26.83;;;19.60;;
9007;SDS011;62813;51.424;6.762;2023-12-07T05:54:20;27.77;;;19.17;;
9007;SDS011;62813;51.424;6.762;2023-12-07T05:56:49;28.30;;;20.80;;
9007;SDS011;62813;51.424;6.762;2023-12-07T05:59:16;25.63;;;20.80;;
9007;SDS011;62813;51.424;6.762;2023-12-07T06:01:43;26.20;;;19.30;;
9007;SDS011;62813;51.424;6.762;2023-12-07T06:04:10;28.17;;;19.40;;
9007;SDS011;62813;51.424;6.762;2023-12-07T06:06:39;45.90;;;30.77;;
9007;SDS011;62813;51.424;6.762;2023-12-07T06:09:07;44.60;;;31.23;;
9007;SDS011;62813;51.424;6.762;2023-12-07T06:11:34;30.13;;;22.77;;
9007;SDS011;62813;51.424;6.762;2023-12-07T06:14:04;25.60;;;20.03;;
9007;SDS011;62813;51.424;6.762;2023-12-07T06:16:32;28.17;;;18.73;;
9007;SDS011;62813;51.424;6.762;2023-12-07T06:19:00;23.43;;;18.30;;
9007;SDS011;62813;51.424;6.762;2023-12-07T06:21:27;26.43;;;19.03;;
9007;SDS011;62813;51.424;6.762;2023-12-07T06:23:56;26.97;;;19.23;;
9007;SDS011;62813;51.424;6.762;2023-12-07T06:26:25;26.50;;;17.00;;
9007;SDS011;62813;51.424;6.762;2023-12-07T06:28:52;27.87;;;19.40;;
9007;SDS011;62813;51.424;6.762;2023-12-07T06:31:19;29.47;;;19.47;;
9007;SDS011;62813;51.424;6.762;2023-12-07T06:33:51;25.87;;;18.90;;
9007;SDS011;62813;51.424;6.762;2023-12-07T06:36:22;25.53;;;18.93;;
9007;SDS011;62813;51.424;6.762;2023-12-07T06:38:50;26.40;;;18.33;;
9007;SDS011;62813;51.424;6.762;2023-12-07T06:41:17;27.33;;;18.83;;
9007;SDS011;62813;51.424;6.762;2023-12-07T06:43:44;27.70;;;19.30;;
9007;SDS011;62813;51.424;6.762;2023-12-07T06:46:11;28.23;;;20.17;;
9007;SDS011;62813;51.424;6.762;2023-12-07T06:48:41;38.57;;;27.03;;
9007;SDS011;62813;51.424;6.762;2023-12-07T06:51:09;32.20;;;25.90;;
9007;SDS011;62813;51.424;6.762;2023-12-07T06:53:36;37.40;;;24.47;;
9007;SDS011;62813;51.424;6.762;2023-12-07T06:56:03;33.60;;;24.07;;
9007;SDS011;62813;51.424;6.762;2023-12-07T06:58:30;28.87;;;20.53;;
9007;SDS011;62813;51.424;6.762;2023-12-07T07:00:57;28.77;;;20.43;;
9007;SDS011;62813;51.424;6.762;2023-12-07T07:03:26;29.73;;;20.33;;
9007;SDS011;62813;51.424;6.762;2023-12-07T07:05:54;28.30;;;18.80;;
9007;SDS011;62813;51.424;6.762;2023-12-07T07:08:21;30.90;;;20.90;;
9007;SDS011;62813;51.424;6.762;2023-12-07T07:10:48;25.50;;;19.67;;
9007;SDS011;62813;51.424;6.762;2023-12-07T07:13:15;25.40;;;19.60;;
9007;SDS011;62813;51.424;6.762;2023-12-07T07:15:43;40.53;;;28.07;;
9007;SDS011;62813;51.424;6.762;2023-12-07T07:18:11;82.87;;;49.30;;
9007;SDS011;62813;51.424;6.762;2023-12-07T07:20:39;42.03;;;26.57;;
9007;SDS011;62813;51.424;6.762;2023-12-07T07:23:06;35.50;;;21.67;;
9007;SDS011;62813;51.424;6.762;2023-12-07T07:25:34;28.33;;;21.17;;
9007;SDS011;62813;51.424;6.762;2023-12-07T07:28:01;30.87;;;20.33;;
9007;SDS011;62813;51.424;6.762;2023-12-07T07:30:29;28.77;;;20.93;;
9007;SDS011;62813;51.424;6.762;2023-12-07T07:32:55;31.20;;;21.73;;
9007;SDS011;62813;51.424;6.762;2023-12-07T07:35:22;32.63;;;21.27;;
9007;SDS011;62813;51.424;6.762;2023-12-07T07:37:49;31.17;;;21.40;;
9007;SDS011;62813;51.424;6.762;2023-12-07T07:40:16;38.13;;;20.87;;
9007;SDS011;62813;51.424;6.762;2023-12-07T07:42:43;66.83;;;36.87;;
9007;SDS011;62813;51.424;6.762;2023-12-07T07:45:10;56.17;;;33.80;;
9007;SDS011;62813;51.424;6.762;2023-12-07T07:47:36;48.73;;;29.37;;
9007;SDS011;62813;51.424;6.762;2023-12-07T07:50:04;36.30;;;21.43;;
9007;SDS011;62813;51.424;6.762;2023-12-07T07:52:32;32.47;;;21.70;;
9007;SDS011;62813;51.424;6.762;2023-12-07T07:55:00;36.97;;;21.77;;
9007;SDS011;62813;51.424;6.762;2023-12-07T07:57:30;30.50;;;20.60;;
9007;SDS011;62813;51.424;6.762;2023-12-07T07:59:57;28.53;;;19.97;;
9007;SDS011;62813;51.424;6.762;2023-12-07T08:02:24;29.83;;;20.77;;
9007;SDS011;62813;51.424;6.762;2023-12-07T08:04:51;28.77;;;19.07;;
9007;SDS011;62813;51.424;6.762;2023-12-07T08:07:20;30.90;;;20.93;;
9007;SDS011;62813;51.424;6.762;2023-12-07T08:09:47;28.70;;;20.23;;
9007;SDS011;62813;51.424;6.762;2023-12-07T08:12:14;28.43;;;20.63;;
9007;SDS011;62813;51.424;6.762;2023-12-07T08:14:41;27.27;;;19.73;;
9007;SDS011;62813;51.424;6.762;2023-12-07T08:17:10;25.80;;;18.97;;
9007;SDS011;62813;51.424;6.762;2023-12-07T08:19:38;28.73;;;20.33;;
9007;SDS011;62813;51.424;6.762;2023-12-07T08:22:04;28.27;;;19.67;;
9007;SDS011;62813;51.424;6.762;2023-12-07T08:24:31;27.80;;;20.00;;
9007;SDS011;62813;51.424;6.762;2023-12-07T08:26:58;27.07;;;17.97;;
9007;SDS011;62813;51.424;6.762;2023-12-07T08:29:25;25.50;;;18.10;;
9007;SDS011;62813;51.424;6.762;2023-12-07T08:31:52;22.97;;;17.03;;
9007;SDS011;62813;51.424;6.762;2023-12-07T08:34:18;28.20;;;18.30;;
9007;SDS011;62813;51.424;6.762;2023-12-07T08:36:49;22.97;;;17.43;;
9007;SDS011;62813;51.424;6.762;2023-12-07T08:39:16;22.53;;;16.67;;
9007;SDS011;62813;51.424;6.762;2023-12-07T08:41:42;22.13;;;17.00;;
9007;SDS011;62813;51.424;6.762;2023-12-07T08:44:09;23.97;;;18.00;;
9007;SDS011;62813;51.424;6.762;2023-12-07T08:46:36;24.73;;;18.07;;
9007;SDS011;62813;51.424;6.762;2023-12-07T08:49:03;22.97;;;16.90;;
9007;SDS011;62813;51.424;6.762;2023-12-07T08:51:30;25.37;;;18.60;;
9007;SDS011;62813;51.424;6.762;2023-12-07T08:53:57;24.87;;;17.03;;
9007;SDS011;62813;51.424;6.762;2023-12-07T08:56:24;21.43;;;17.40;;
9007;SDS011;62813;51.424;6.762;2023-12-07T08:58:51;22.47;;;16.37;;
9007;SDS011;62813;51.424;6.762;2023-12-07T09:01:18;20.40;;;16.17;;
9007;SDS011;62813;51.424;6.762;2023-12-07T09:03:57;22.10;;;16.83;;
9007;SDS011;62813;51.424;6.762;2023-12-07T09:06:25;18.00;;;14.70;;
9007;SDS011;62813;51.424;6.762;2023-12-07T09:08:51;21.17;;;15.13;;
9007;SDS011;62813;51.424;6.762;2023-12-07T09:11:19;23.23;;;16.37;;
9007;SDS011;62813;51.424;6.762;2023-12-07T09:13:45;21.70;;;14.60;;
9007;SDS011;62813;51.424;6.762;2023-12-07T09:16:12;18.03;;;14.40;;
9007;SDS011;62813;51.424;6.762;2023-12-07T09:18:39;19.27;;;14.67;;
9007;SDS011;62813;51.424;6.762;2023-12-07T09:21:07;18.17;;;13.83;;
9007;SDS011;62813;51.424;6.762;2023-12-07T09:23:34;21.57;;;15.00;;
9007;SDS011;62813;51.424;6.762;2023-12-07T09:26:01;21.07;;;14.30;;
9007;SDS011;62813;51.424;6.762;2023-12-07T09:28:29;16.03;;;12.77;;
9007;SDS011;62813;51.424;6.762;2023-12-07T09:30:56;15.67;;;13.10;;
9007;SDS011;62813;51.424;6.762;2023-12-07T09:33:22;17.80;;;13.57;;
9007;SDS011;62813;51.424;6.762;2023-12-07T09:35:50;17.70;;;13.23;;
9007;SDS011;62813;51.424;6.762;2023-12-07T09:38:17;22.47;;;16.60;;
9007;SDS011;62813;51.424;6.762;2023-12-07T09:40:45;18.47;;;14.40;;
9007;SDS011;62813;51.424;6.762;2023-12-07T09:43:13;19.73;;;13.77;;
9007;SDS011;62813;51.424;6.762;2023-12-07T09:45:40;18.70;;;13.87;;
9007;SDS011;62813;51.424;6.762;2023-12-07T09:48:07;15.53;;;13.53;;
9007;SDS011;62813;51.424;6.762;2023-12-07T09:50:34;18.53;;;14.83;;
9007;SDS011;62813;51.424;6.762;2023-12-07T09:53:02;22.60;;;17.63;;
9007;SDS011;62813;51.424;6.762;2023-12-07T09:55:34;23.60;;;17.90;;
9007;SDS011;62813;51.424;6.762;2023-12-07T09:58:03;19.17;;;13.60;;
9007;SDS011;62813;51.424;6.762;2023-12-07T10:00:33;15.03;;;12.13;;
9007;SDS011;62813;51.424;6.762;2023-12-07T10:03:00;16.53;;;12.83;;
9007;SDS011;62813;51.424;6.762;2023-12-07T10:05:28;13.80;;;11.57;;
9007;SDS011;62813;51.424;6.762;2023-12-07T10:07:55;18.20;;;12.90;;
9007;SDS011;62813;51.424;6.762;2023-12-07T10:10:21;16.23;;;12.87;;
9007;SDS011;62813;51.424;6.762;2023-12-07T10:12:55;16.20;;;12.27;;
9007;SDS011;62813;51.424;6.762;2023-12-07T10:15:25;15.17;;;12.17;;
9007;SDS011;62813;51.424;6.762;2023-12-07T10:17:56;16.67;;;12.93;;
9007;SDS011;62813;51.424;6.762;2023-12-07T10:20:26;14.53;;;12.27;;
9007;SDS011;62813;51.424;6.762;2023-12-07T10:25:33;13.60;;;11.53;;
9007;SDS011;62813;51.424;6.762;2023-12-07T10:28:03;16.37;;;11.17;;
9007;SDS011;62813;51.424;6.762;2023-12-07T10:30:41;18.53;;;11.20;;
9007;SDS011;62813;51.424;6.762;2023-12-07T10:33:09;18.17;;;11.63;;
9007;SDS011;62813;51.424;6.762;2023-12-07T10:35:40;15.00;;;11.47;;
9007;SDS011;62813;51.424;6.762;2023-12-07T10:38:09;13.70;;;10.97;;
9007;SDS011;62813;51.424;6.762;2023-12-07T10:40:37;15.53;;;12.37;;
9007;SDS011;62813;51.424;6.762;2023-12-07T10:43:05;14.60;;;10.97;;
9007;SDS011;62813;51.424;6.762;2023-12-07T10:45:35;16.63;;;11.43;;
9007;SDS011;62813;51.424;6.762;2023-12-07T10:48:07;13.93;;;11.70;;
9007;SDS011;62813;51.424;6.762;2023-12-07T10:50:41;15.17;;;10.87;;
9007;SDS011;62813;51.424;6.762;2023-12-07T10:53:26;15.47;;;10.73;;
9007;SDS011;62813;51.424;6.762;2023-12-07T10:55:58;13.87;;;11.03;;
9007;SDS011;62813;51.424;6.762;2023-12-07T10:58:27;14.67;;;11.47;;
9007;SDS011;62813;51.424;6.762;2023-12-07T11:00:55;14.87;;;11.10;;
9007;SDS011;62813;51.424;6.762;2023-12-07T11:03:24;15.53;;;11.43;;
9007;SDS011;62813;51.424;6.762;2023-12-07T11:05:52;13.80;;;10.73;;
9007;SDS011;62813;51.424;6.762;2023-12-07T11:14:11;14.90;;;11.27;;
9007;SDS011;62813;51.424;6.762;2023-12-07T11:16:40;17.37;;;11.53;;
9007;SDS011;62813;51.424;6.762;2023-12-07T11:22:02;14.37;;;11.33;;
9007;SDS011;62813;51.424;6.762;2023-12-07T11:24:32;15.23;;;11.20;;
9007;SDS011;62813;51.424;6.762;2023-12-07T11:26:59;16.30;;;12.30;;
9007;SDS011;62813;51.424;6.762;2023-12-07T11:29:28;12.70;;;10.20;;
9007;SDS011;62813;51.424;6.762;2023-12-07T11:32:02;15.87;;;11.30;;
9007;SDS011;62813;51.424;6.762;2023-12-07T11:34:45;12.97;;;10.67;;
9007;SDS011;62813;51.424;6.762;2023-12-07T11:37:14;16.67;;;12.23;;
9007;SDS011;62813;51.424;6.762;2023-12-07T11:39:44;16.03;;;11.17;;
9007;SDS011;62813;51.424;6.762;2023-12-07T11:42:12;12.43;;;10.10;;
9007;SDS011;62813;51.424;6.762;2023-12-07T11:44:43;12.77;;;10.30;;
9007;SDS011;62813;51.424;6.762;2023-12-07T11:47:17;15.93;;;11.83;;
9007;SDS011;62813;51.424;6.762;2023-12-07T11:49:45;13.20;;;10.50;;
9007;SDS011;62813;51.424;6.762;2023-12-07T11:52:16;16.63;;;11.40;;
9007;SDS011;62813;51.424;6.762;2023-12-07T11:54:45;15.27;;;11.93;;
9007;SDS011;62813;51.424;6.762;2023-12-07T11:57:16;14.23;;;10.63;;
9007;SDS011;62813;51.424;6.762;2023-12-07T11:59:43;12.67;;;9.80;;
9007;SDS011;62813;51.424;6.762;2023-12-07T12:02:11;16.00;;;11.43;;
9007;SDS011;62813;51.424;6.762;2023-12-07T12:04:42;15.63;;;10.80;;
9007;SDS011;62813;51.424;6.762;2023-12-07T12:07:09;15.77;;;10.07;;
9007;SDS011;62813;51.424;6.762;2023-12-07T12:09:36;12.63;;;10.20;;
9007;SDS011;62813;51.424;6.762;2023-12-07T12:12:04;13.50;;;9.97;;
9007;SDS011;62813;51.424;6.762;2023-12-07T12:14:31;13.57;;;10.10;;
9007;SDS011;62813;51.424;6.762;2023-12-07T12:16:58;11.73;;;9.83;;
9007;SDS011;62813;51.424;6.762;2023-12-07T12:19:25;13.07;;;10.37;;
9007;SDS011;62813;51.424;6.762;2023-12-07T12:22:02;19.37;;;13.47;;
9007;SDS011;62813;51.424;6.762;2023-12-07T12:24:33;28.17;;;17.87;;
9007;SDS011;62813;51.424;6.762;2023-12-07T12:27:02;14.63;;;11.27;;
9007;SDS011;62813;51.424;6.762;2023-12-07T12:29:30;13.73;;;9.87;;
9007;SDS011;62813;51.424;6.762;2023-12-07T12:32:01;11.47;;;9.90;;
9007;SDS011;62813;51.424;6.762;2023-12-07T12:34:30;15.77;;;10.90;;
9007;SDS011;62813;51.424;6.762;2023-12-07T12:36:59;13.60;;;10.43;;
9007;SDS011;62813;51.424;6.762;2023-12-07T12:39:28;11.97;;;10.47;;
9007;SDS011;62813;51.424;6.762;2023-12-07T12:41:59;12.77;;;10.10;;
9007;SDS011;62813;51.424;6.762;2023-12-07T12:44:27;13.57;;;10.63;;
9007;SDS011;62813;51.424;6.762;2023-12-07T12:47:04;15.60;;;9.53;;
9007;SDS011;62813;51.424;6.762;2023-12-07T12:49:38;12.00;;;9.17;;
9007;SDS011;62813;51.424;6.762;2023-12-07T12:52:11;14.30;;;9.80;;
9007;SDS011;62813;51.424;6.762;2023-12-07T12:54:43;40.53;;;25.73;;
9007;SDS011;62813;51.424;6.762;2023-12-07T12:57:10;14.80;;;10.83;;
9007;SDS011;62813;51.424;6.762;2023-12-07T12:59:37;16.07;;;12.87;;
9007;SDS011;62813;51.424;6.762;2023-12-07T13:02:04;20.17;;;14.23;;
9007;SDS011;62813;51.424;6.762;2023-12-07T13:04:32;14.93;;;11.57;;
9007;SDS011;62813;51.424;6.762;2023-12-07T13:07:03;14.20;;;10.73;;
9007;SDS011;62813;51.424;6.762;2023-12-07T13:09:31;12.57;;;10.20;;
9007;SDS011;62813;51.424;6.762;2023-12-07T13:11:58;13.17;;;9.67;;
9007;SDS011;62813;51.424;6.762;2023-12-07T13:14:30;12.30;;;9.50;;
9007;SDS011;62813;51.424;6.762;2023-12-07T13:16:58;11.93;;;9.07;;
9007;SDS011;62813;51.424;6.762;2023-12-07T13:19:24;13.10;;;9.47;;
9007;SDS011;62813;51.424;6.762;2023-12-07T13:21:51;14.17;;;9.33;;
9007;SDS011;62813;51.424;6.762;2023-12-07T13:24:19;12.03;;;9.17;;
9007;SDS011;62813;51.424;6.762;2023-12-07T13:26:45;14.63;;;10.27;;
9007;SDS011;62813;51.424;6.762;2023-12-07T13:29:14;11.90;;;9.53;;
9007;SDS011;62813;51.424;6.762;2023-12-07T13:31:53;14.27;;;9.97;;
9007;SDS011;62813;51.424;6.762;2023-12-07T13:34:20;13.60;;;9.33;;
9007;SDS011;62813;51.424;6.762;2023-12-07T13:36:49;11.33;;;9.07;;
9007;SDS011;62813;51.424;6.762;2023-12-07T13:39:16;12.07;;;9.07;;
9007;SDS011;62813;51.424;6.762;2023-12-07T13:41:56;12.70;;;9.40;;
9007;SDS011;62813;51.424;6.762;2023-12-07T13:44:23;16.17;;;9.10;;
9007;SDS011;62813;51.424;6.762;2023-12-07T13:46:56;11.57;;;7.87;;
9007;SDS011;62813;51.424;6.762;2023-12-07T13:49:24;13.43;;;9.60;;
9007;SDS011;62813;51.424;6.762;2023-12-07T13:51:59;10.90;;;8.57;;
9007;SDS011;62813;51.424;6.762;2023-12-07T13:54:34;15.03;;;11.37;;
9007;SDS011;62813;51.424;6.762;2023-12-07T13:57:05;18.13;;;11.87;;
9007;SDS011;62813;51.424;6.762;2023-12-07T13:59:32;12.20;;;9.83;;
9007;SDS011;62813;51.424;6.762;2023-12-07T14:01:58;11.03;;;8.10;;
9007;SDS011;62813;51.424;6.762;2023-12-07T14:04:25;13.53;;;8.90;;
9007;SDS011;62813;51.424;6.762;2023-12-07T14:07:06;15.20;;;9.33;;
9007;SDS011;62813;51.424;6.762;2023-12-07T14:09:37;11.10;;;8.77;;
9007;SDS011;62813;51.424;6.762;2023-12-07T14:12:17;9.20;;;8.03;;
9007;SDS011;62813;51.424;6.762;2023-12-07T14:14:45;9.90;;;8.17;;
9007;SDS011;62813;51.424;6.762;2023-12-07T14:17:13;12.00;;;8.97;;
9007;SDS011;62813;51.424;6.762;2023-12-07T14:19:41;11.13;;;7.97;;
9007;SDS011;62813;51.424;6.762;2023-12-07T14:22:08;14.03;;;11.10;;
9007;SDS011;62813;51.424;6.762;2023-12-07T14:24:36;19.90;;;15.07;;
9007;SDS011;62813;51.424;6.762;2023-12-07T14:27:03;10.30;;;8.20;;
9007;SDS011;62813;51.424;6.762;2023-12-07T14:29:30;12.10;;;9.00;;
9007;SDS011;62813;51.424;6.762;2023-12-07T14:31:59;11.67;;;8.00;;
9007;SDS011;62813;51.424;6.762;2023-12-07T14:34:29;10.20;;;8.33;;
9007;SDS011;62813;51.424;6.762;2023-12-07T14:37:01;11.63;;;7.97;;
9007;SDS011;62813;51.424;6.762;2023-12-07T14:39:29;14.40;;;8.60;;
9007;SDS011;62813;51.424;6.762;2023-12-07T14:41:56;9.67;;;7.87;;
9007;SDS011;62813;51.424;6.762;2023-12-07T14:44:23;10.60;;;8.50;;
9007;SDS011;62813;51.424;6.762;2023-12-07T14:46:55;11.37;;;8.17;;
9007;SDS011;62813;51.424;6.762;2023-12-07T14:49:22;12.93;;;8.77;;
9007;SDS011;62813;51.424;6.762;2023-12-07T14:51:50;12.37;;;8.27;;
9007;SDS011;62813;51.424;6.762;2023-12-07T14:54:17;11.10;;;8.53;;
9007;SDS011;62813;51.424;6.762;2023-12-07T14:56:53;9.47;;;7.43;;
9007;SDS011;62813;51.424;6.762;2023-12-07T14:59:20;13.50;;;8.30;;
9007;SDS011;62813;51.424;6.762;2023-12-07T15:01:47;10.30;;;7.90;;